createdAt,value
2023-08-12T00:05:13.292Z,21.30
2023-08-12T00:11:08.145Z,21.30
2023-08-12T00:17:01.634Z,21.30
2023-08-12T00:22:55.075Z,21.20
2023-08-12T00:28:51.599Z,21.30
2023-08-12T00:34:45.244Z,21.30
2023-08-12T00:40:38.226Z,21.30
2023-08-12T00:46:33.271Z,21.30
2023-08-12T00:52:27.333Z,21.10
2023-08-12T00:58:21.385Z,21.20
2023-08-12T01:04:15.807Z,21.10
2023-08-12T01:10:12.533Z,21.00
2023-08-12T01:16:09.601Z,21.00
2023-08-12T01:22:06.291Z,20.90
2023-08-12T01:28:01.109Z,20.90
2023-08-12T01:34:00.852Z,20.80
2023-08-12T01:39:57.050Z,20.70
2023-08-12T01:45:52.043Z,20.80
2023-08-12T01:51:45.827Z,20.80
2023-08-12T01:57:39.296Z,20.80
2023-08-12T02:03:34.212Z,20.70
2023-08-12T02:09:27.538Z,20.70
2023-08-12T02:15:20.952Z,20.70
2023-08-12T02:21:15.739Z,20.60
2023-08-12T02:27:09.441Z,20.60
2023-08-12T02:33:03.221Z,20.60
2023-08-12T02:38:58.034Z,20.50
2023-08-12T02:44:51.656Z,20.60
2023-08-12T02:50:45.238Z,20.50
2023-08-12T02:56:40.058Z,20.30
2023-08-12T03:02:33.713Z,20.30
2023-08-12T03:08:27.332Z,20.20
2023-08-12T03:14:23.221Z,20.20
2023-08-12T03:20:16.658Z,20.20
2023-08-12T03:26:10.448Z,20.10
2023-08-12T03:32:05.792Z,20.10
2023-08-12T03:37:59.517Z,20.10
2023-08-12T03:43:54.365Z,20.20
2023-08-12T03:49:49.315Z,20.20
2023-08-12T03:55:43.953Z,20.20
2023-08-12T04:01:39.975Z,20.20
2023-08-12T04:07:35.559Z,20.10
2023-08-12T04:13:29.205Z,20.00
2023-08-12T04:19:22.685Z,19.80
2023-08-12T04:25:17.566Z,19.90
2023-08-12T04:31:11.126Z,19.80
2023-08-12T04:37:07.901Z,19.60
2023-08-12T04:43:03.169Z,19.90
2023-08-12T04:48:56.893Z,19.60
2023-08-12T04:54:50.286Z,19.50
2023-08-12T05:00:45.328Z,19.80
2023-08-12T05:06:38.508Z,19.80
2023-08-12T05:12:31.838Z,19.70
2023-08-12T05:18:27.913Z,19.80
2023-08-12T05:24:21.521Z,19.80
2023-08-12T05:30:15.969Z,19.90
2023-08-12T05:36:10.994Z,19.90
2023-08-12T05:42:04.072Z,19.90
2023-08-12T05:47:57.091Z,19.80
2023-08-12T05:53:52.064Z,19.70
2023-08-12T05:59:45.074Z,19.90
2023-08-12T06:05:38.137Z,20.00
2023-08-12T06:11:32.947Z,20.00
2023-08-12T06:17:26.395Z,19.90
2023-08-12T06:23:19.834Z,20.00
2023-08-12T06:29:14.266Z,20.00
2023-08-12T06:35:08.430Z,19.80
2023-08-12T06:41:01.451Z,19.90
2023-08-12T06:46:56.256Z,19.90
2023-08-12T06:52:49.283Z,19.90
2023-08-12T06:58:42.767Z,20.10
2023-08-12T07:04:37.715Z,20.20
2023-08-12T07:10:31.192Z,20.20
2023-08-12T07:16:24.467Z,20.20
2023-08-12T07:22:20.535Z,20.30
2023-08-12T07:28:14.096Z,20.20
2023-08-12T07:34:07.649Z,20.30
2023-08-12T07:40:02.629Z,20.50
2023-08-12T07:46:07.688Z,20.50
2023-08-12T07:52:02.104Z,20.40
2023-08-12T07:57:56.565Z,20.50
2023-08-12T08:03:49.993Z,20.60
2023-08-12T08:09:43.092Z,20.60
2023-08-12T08:15:37.476Z,20.60
2023-08-12T08:21:30.997Z,20.60
2023-08-12T08:27:24.439Z,20.70
2023-08-12T08:33:19.252Z,20.80
2023-08-12T08:39:12.728Z,20.90
2023-08-12T08:45:11.866Z,20.90
2023-08-12T08:51:08.065Z,21.00
2023-08-12T08:57:06.549Z,21.00
2023-08-12T09:03:08.123Z,21.10
2023-08-12T09:09:04.436Z,21.20
2023-08-12T09:14:58.250Z,21.10
2023-08-12T09:20:51.397Z,21.20
2023-08-12T09:26:47.281Z,21.30
2023-08-12T09:32:40.765Z,21.40
2023-08-12T09:38:34.634Z,21.50
2023-08-12T09:44:29.034Z,21.50
2023-08-12T09:50:24.443Z,21.50
2023-08-12T09:56:22.029Z,21.50
2023-08-12T10:02:20.266Z,21.50
2023-08-12T10:08:16.066Z,21.50
2023-08-12T10:14:12.419Z,21.60
2023-08-12T10:20:09.752Z,21.70
2023-08-12T10:26:07.490Z,21.70
2023-08-12T10:32:02.016Z,21.70
2023-08-12T10:37:57.312Z,21.90
2023-08-12T10:43:57.962Z,21.90
2023-08-12T10:49:51.857Z,22.00
2023-08-12T10:55:51.693Z,21.90
2023-08-12T11:01:45.175Z,21.80
2023-08-12T11:07:41.995Z,21.80
2023-08-12T11:13:49.526Z,22.00
2023-08-12T11:19:43.581Z,22.40
2023-08-12T11:25:38.841Z,22.50
2023-08-12T11:31:33.249Z,22.40
2023-08-12T11:37:26.365Z,22.30
2023-08-12T11:43:23.515Z,22.20
2023-08-12T11:49:18.453Z,22.20
2023-08-12T11:55:11.998Z,22.20
2023-08-12T12:01:05.316Z,22.20
2023-08-12T12:07:01.040Z,22.10
2023-08-12T12:12:54.128Z,22.10
2023-08-12T12:18:47.582Z,22.00
2023-08-12T12:24:49.140Z,22.00
2023-08-12T12:30:42.701Z,22.00
2023-08-12T12:36:37.577Z,22.10
2023-08-12T12:42:32.042Z,22.10
2023-08-12T12:48:25.119Z,22.30
2023-08-12T12:54:18.606Z,22.40
2023-08-12T13:00:15.023Z,22.40
2023-08-12T13:06:08.659Z,22.60
2023-08-12T13:12:02.153Z,22.50
2023-08-12T13:17:57.107Z,22.70
2023-08-12T13:23:50.615Z,22.50
2023-08-12T13:29:44.619Z,22.30
2023-08-12T13:35:39.560Z,22.10
2023-08-12T13:41:33.104Z,22.00
2023-08-12T13:47:26.573Z,22.00
2023-08-12T13:53:21.078Z,21.80
2023-08-12T13:59:14.507Z,21.60
2023-08-12T14:05:09.051Z,21.60
2023-08-12T14:11:04.132Z,21.50
2023-08-12T14:16:57.625Z,21.60
2023-08-12T14:22:51.272Z,21.70
2023-08-12T14:28:46.092Z,21.50
2023-08-12T14:34:39.616Z,21.60
2023-08-12T14:40:32.665Z,21.70
2023-08-12T14:46:27.862Z,21.70
2023-08-12T14:52:22.172Z,21.80
2023-08-12T14:58:15.617Z,21.80
2023-08-12T15:04:10.581Z,21.80
2023-08-12T15:10:04.363Z,21.70
2023-08-12T15:15:57.848Z,21.70
2023-08-12T15:21:52.922Z,21.70
2023-08-12T15:27:46.455Z,21.80
2023-08-12T15:33:39.917Z,22.00
2023-08-12T15:39:35.107Z,22.30
2023-08-12T15:45:28.812Z,22.20
2023-08-12T15:51:22.271Z,22.50
2023-08-12T15:57:17.148Z,22.40
2023-08-12T16:03:10.907Z,22.40
2023-08-12T16:09:15.682Z,22.50
2023-08-12T16:15:13.150Z,22.50
2023-08-12T16:21:06.188Z,22.60
2023-08-12T16:27:00.396Z,22.60
2023-08-12T16:32:55.405Z,22.50
2023-08-12T16:38:48.481Z,22.50
2023-08-12T16:44:41.480Z,22.40
2023-08-12T16:50:36.303Z,22.20
2023-08-12T16:56:29.828Z,22.10
2023-08-12T17:02:23.282Z,22.10
2023-08-12T17:08:18.066Z,21.80
2023-08-12T17:14:11.228Z,21.60
2023-08-12T17:20:05.140Z,21.50
2023-08-12T17:26:00.243Z,21.30
2023-08-12T17:31:53.759Z,21.20
2023-08-12T17:37:47.212Z,21.20
2023-08-12T17:43:45.055Z,21.10
2023-08-12T17:49:38.471Z,21.10
2023-08-12T17:55:32.406Z,21.00
2023-08-12T18:01:26.822Z,21.00
2023-08-12T18:07:19.884Z,20.80
2023-08-12T18:13:13.402Z,20.80
2023-08-12T18:19:08.326Z,20.80
2023-08-12T18:25:01.797Z,20.60
2023-08-12T18:30:55.613Z,20.60
2023-08-12T18:36:50.425Z,20.50
2023-08-12T18:42:43.873Z,20.50
2023-08-12T18:48:36.901Z,20.50
2023-08-12T18:54:31.735Z,20.50
2023-08-12T19:00:24.882Z,20.40
2023-08-12T19:06:18.463Z,20.40
2023-08-12T19:12:13.536Z,20.40
2023-08-12T19:18:07.004Z,20.30
2023-08-12T19:24:00.231Z,20.20
2023-08-12T19:29:55.035Z,20.00
2023-08-12T19:35:48.567Z,19.90
2023-08-12T19:41:42.020Z,19.80
2023-08-12T19:47:42.821Z,19.70
2023-08-12T19:53:36.285Z,19.60
2023-08-12T19:59:30.468Z,19.60
2023-08-12T20:05:27.289Z,19.50
2023-08-12T20:11:20.332Z,19.50
2023-08-12T20:17:13.789Z,19.40
2023-08-12T20:23:08.640Z,19.40
2023-08-12T20:29:03.207Z,19.30
2023-08-12T20:34:57.355Z,19.30
2023-08-12T20:40:52.563Z,19.20
2023-08-12T20:46:45.736Z,19.20
2023-08-12T20:52:38.820Z,19.20
2023-08-12T20:58:33.608Z,19.00
2023-08-12T21:04:27.082Z,19.10
2023-08-12T21:10:20.543Z,19.10
2023-08-12T21:16:15.470Z,19.10
2023-08-12T21:22:09.007Z,19.10
2023-08-12T21:28:01.999Z,19.10
2023-08-12T21:33:56.825Z,18.90
2023-08-12T21:39:50.356Z,18.90
2023-08-12T21:45:44.019Z,19.00
2023-08-12T21:51:38.905Z,18.80
2023-08-12T21:57:32.330Z,18.90
2023-08-12T22:03:25.846Z,18.80
2023-08-12T22:09:20.653Z,18.50
2023-08-12T22:15:14.121Z,18.70
2023-08-12T22:21:07.544Z,18.60
2023-08-12T22:27:02.349Z,18.60
2023-08-12T22:32:55.851Z,18.70
2023-08-12T22:38:49.319Z,18.50
2023-08-12T22:44:43.723Z,18.70
2023-08-12T22:50:37.451Z,18.50
2023-08-12T22:56:31.695Z,18.60
2023-08-12T23:02:26.605Z,18.50
2023-08-12T23:08:20.189Z,18.40
2023-08-12T23:14:13.734Z,18.50
2023-08-12T23:20:10.393Z,18.30
2023-08-12T23:26:04.543Z,18.00
2023-08-12T23:31:59.584Z,18.00
2023-08-12T23:37:53.978Z,18.00
2023-08-12T23:43:47.488Z,18.00
2023-08-12T23:49:40.904Z,18.20
2023-08-12T23:55:35.703Z,18.10
